createdAt,value
2018-04-14T12:44:49.390Z,44.80
2018-04-14T12:47:22.717Z,50.80
2018-04-14T12:49:56.820Z,55.70
2018-04-14T12:52:30.711Z,45.92
2018-04-14T12:55:04.332Z,56.65
2018-04-14T12:57:38.194Z,50.60
2018-04-14T13:00:07.412Z,51.42
2018-04-14T13:02:41.690Z,52.22
2018-04-14T13:05:10.863Z,50.63
2018-04-14T13:07:45.159Z,51.75
2018-04-14T13:10:14.563Z,52.60
2018-04-14T13:12:47.259Z,46.90
2018-04-14T13:15:16.077Z,49.40
2018-04-14T13:17:51.333Z,48.42
2018-04-14T13:20:21.220Z,49.17
2018-04-14T13:22:50.459Z,50.05
2018-04-14T13:25:25.205Z,51.00
2018-04-14T13:27:59.477Z,50.47
2018-04-14T13:30:34.091Z,47.62
2018-04-14T13:33:14.051Z,49.67
2018-04-14T13:35:47.677Z,50.50
2018-04-14T13:38:21.291Z,49.45
2018-04-14T13:40:50.447Z,48.10
2018-04-14T13:43:24.371Z,51.05
2018-04-14T13:45:58.876Z,49.75
2018-04-14T13:48:33.275Z,49.83
2018-04-14T13:51:02.661Z,45.25
2018-04-14T13:53:36.326Z,49.88
2018-04-14T13:56:05.714Z,48.80
2018-04-14T13:58:39.868Z,47.72
2018-04-14T14:01:09.164Z,48.70
2018-04-14T14:03:44.994Z,49.45
2018-04-14T14:06:19.473Z,48.38
2018-04-14T14:08:55.552Z,50.20
2018-04-14T14:11:28.840Z,46.97
2018-04-14T14:14:02.849Z,55.80
2018-04-14T14:16:37.532Z,50.28
2018-04-14T14:19:12.901Z,46.45
2018-04-14T14:21:47.214Z,51.15
2018-04-14T14:24:16.687Z,46.10
2018-04-14T14:26:52.859Z,48.22
2018-04-14T14:29:26.595Z,46.80
2018-04-14T14:32:01.227Z,48.58
2018-04-14T14:34:36.018Z,46.78
2018-04-14T14:37:06.089Z,44.97
2018-04-14T14:39:41.209Z,46.97
2018-04-14T14:45:15.229Z,45.70
2018-04-14T14:47:45.109Z,45.33
2018-04-14T14:50:19.707Z,42.80
2018-04-14T14:52:52.887Z,46.80
2018-04-14T14:55:25.919Z,42.42
2018-04-14T14:57:54.577Z,41.53
2018-04-14T15:00:27.848Z,41.65
2018-04-14T15:03:03.162Z,40.72
2018-04-14T15:05:37.149Z,37.78
2018-04-14T15:08:13.081Z,38.17
2018-04-14T15:10:42.655Z,37.60
2018-04-14T15:13:11.638Z,38.90
2018-04-14T15:15:42.257Z,36.22
2018-04-14T15:18:11.705Z,35.05
2018-04-14T15:20:40.921Z,34.00
2018-04-14T15:23:10.515Z,32.25
2018-04-14T15:25:40.236Z,31.85
2018-04-14T15:28:14.866Z,32.13
2018-04-14T15:30:52.596Z,33.95
2018-04-14T15:33:27.634Z,33.00
2018-04-14T15:35:57.112Z,32.47
2018-04-14T15:38:28.610Z,35.25
2018-04-14T15:40:58.401Z,31.17
2018-04-14T15:43:33.028Z,32.65
2018-04-14T15:46:08.416Z,31.40
2018-04-14T15:48:42.507Z,33.35
2018-04-14T15:51:20.334Z,33.67
2018-04-14T15:53:52.188Z,30.90
2018-04-14T15:56:38.593Z,29.87
